KBTR/BTR METAR and TAF weather

Enter ICAO airport designator
Station Type Date Time Source
KBTR METAR 2019/02/23 01:53 UTC NOAA

KBTR 230153Z 17010KT 10SM BKN019 BKN026 24/22 A2998 RMK AO2 SLP150 T02390217


Station Type Date Time Source
KBTR Decoded METAR 2019/02/23 01:53 UTC NOAA

BATON ROUGE METRO RYAN FIELD, LA, United States (KBTR) 30-32N 91-09W 21M
Feb 22, 2019 - 08:53 PM EST / 2019.02.23 0153 UTC
Wind: from the S (170 degrees) at 12 MPH (10 KT):0
Visibility: 10 mile(s):0
Sky conditions: mostly cloudy
Temperature: 75.0 F (23.9 C)
Dew Point: 71.1 F (21.7 C)
Relative Humidity: 87%
Pressure (altimeter): 29.98 in. Hg (1015 hPa)
ob: KBTR 230153Z 17010KT 10SM BKN019 BKN026 24/22 A2998 RMK AO2 SLP150 T02390217
cycle: 2

Station Type Date Time Source
KBTR TAF 2019/02/23 02:24 UTC NOAA

TAF
AMD KBTR 230222Z 2302/2324 17010KT P6SM VCSH BKN019 BKN026
FM230300 15009KT P6SM OVC011
FM231300 17009KT 5SM BR VCSH OVC006
FM231700 19014G24KT P6SM VCSH OVC015
FM232200 21014G23KT P6SM -SHRA OVC019


Example: see airport list